Time;durP1;ratioP1;P1;durP2;ratioP2;P2;SDS_P1;SDS_P2;PMS_P1;PMS_P2;Temp;Humidity;BMP_temperature;BMP_pressure;BME280_temperature;BME280_humidity;BME280_pressure;Samples;Min_cycle;Max_cycle;Signal;HPM_P1;HPM_P2
2021/05/21 00:00:11;;;;;;;10.80;5.80;;;;;;;;;;5006579;28;20038;-74
2021/05/21 00:02:36;;;;;;;9.13;5.10;;;;;;;;;;5007104;28;20038;-74
2021/05/21 00:05:02;;;;;;;7.53;5.57;;;;;;;;;;4990736;28;20030;-74
2021/05/21 00:07:28;;;;;;;11.30;6.33;;;;;;;;;;5006503;28;20417;-75
2021/05/21 00:09:53;;;;;;;9.27;5.70;;;;;;;;;;4990533;28;20117;-73
2021/05/21 00:12:19;;;;;;;9.77;5.80;;;;;;;;;;4990197;28;20096;-74
2021/05/21 00:14:44;;;;;;;8.30;5.90;;;;;;;;;;4991537;28;20502;-75
2021/05/21 00:17:10;;;;;;;8.67;5.57;;;;;;;;;;4991127;28;20420;-75
2021/05/21 00:19:35;;;;;;;8.60;5.07;;;;;;;;;;5006367;28;20490;-74
2021/05/21 00:22:01;;;;;;;7.97;4.63;;;;;;;;;;5006182;28;20033;-77
2021/05/21 00:24:26;;;;;;;7.30;5.60;;;;;;;;;;4991981;28;20042;-77
2021/05/21 00:26:52;;;;;;;6.93;4.73;;;;;;;;;;4990171;28;20034;-77
2021/05/21 00:29:18;;;;;;;7.37;4.80;;;;;;;;;;4989557;28;20129;-77
2021/05/21 00:31:44;;;;;;;7.87;5.27;;;;;;;;;;5007002;28;20479;-77
2021/05/21 00:34:10;;;;;;;8.50;5.50;;;;;;;;;;4992433;28;20061;-76
2021/05/21 00:36:35;;;;;;;9.13;5.03;;;;;;;;;;5006247;28;20053;-77
2021/05/21 00:39:01;;;;;;;8.83;5.80;;;;;;;;;;4991642;28;20510;-78
2021/05/21 00:41:27;;;;;;;7.77;5.53;;;;;;;;;;5006751;28;20129;-79
2021/05/21 00:43:54;;;;;;;8.77;4.87;;;;;;;;;;4990385;28;20062;-77
2021/05/21 00:46:20;;;;;;;7.77;5.57;;;;;;;;;;4990320;28;20027;-76
2021/05/21 00:48:45;;;;;;;8.33;5.37;;;;;;;;;;4990923;28;20037;-77
2021/05/21 00:51:11;;;;;;;9.40;5.53;;;;;;;;;;4991104;28;20502;-75
2021/05/21 00:53:37;;;;;;;10.63;5.30;;;;;;;;;;5006653;28;20030;-79
2021/05/21 00:56:04;;;;;;;8.87;5.03;;;;;;;;;;5006900;28;20053;-78
2021/05/21 00:58:30;;;;;;;9.93;5.73;;;;;;;;;;4991669;28;20087;-76
2021/05/21 01:00:56;;;;;;;13.90;5.80;;;;;;;;;;4991326;28;20101;-77
2021/05/21 01:03:23;;;;;;;6.03;4.97;;;;;;;;;;4990724;28;20026;-77
2021/05/21 01:05:49;;;;;;;6.83;5.23;;;;;;;;;;4990519;28;20522;-75
2021/05/21 01:08:15;;;;;;;7.23;5.20;;;;;;;;;;5005547;28;20118;-76
2021/05/21 01:10:41;;;;;;;7.57;4.77;;;;;;;;;;4991703;28;20038;-75
2021/05/21 01:13:07;;;;;;;6.70;4.33;;;;;;;;;;4990641;28;20045;-77
2021/05/21 01:15:40;;;;;;;9.63;5.23;;;;;;;;;;5005804;28;20038;-76
2021/05/21 01:18:08;;;;;;;6.27;4.53;;;;;;;;;;4989338;28;20509;-77
2021/05/21 01:20:34;;;;;;;5.50;4.53;;;;;;;;;;4990527;28;20530;-76
2021/05/21 01:23:00;;;;;;;6.57;5.30;;;;;;;;;;4989770;28;20467;-76
2021/05/21 01:25:27;;;;;;;10.20;5.13;;;;;;;;;;5005658;28;20044;-77
2021/05/21 01:27:55;;;;;;;9.07;4.83;;;;;;;;;;4991597;28;20038;-77
2021/05/21 01:30:23;;;;;;;5.73;4.03;;;;;;;;;;4989994;28;20040;-77
2021/05/21 01:32:49;;;;;;;5.47;3.97;;;;;;;;;;5005386;28;20030;-76
2021/05/21 01:35:16;;;;;;;9.57;4.43;;;;;;;;;;4990941;28;20033;-77
2021/05/21 01:37:46;;;;;;;6.33;4.83;;;;;;;;;;4989552;28;20116;-77
2021/05/21 01:40:13;;;;;;;5.83;4.53;;;;;;;;;;4988967;28;20165;-75
2021/05/21 01:42:39;;;;;;;7.30;4.53;;;;;;;;;;5005904;28;20036;-78
2021/05/21 01:45:07;;;;;;;8.10;4.70;;;;;;;;;;4990077;28;20026;-77
2021/05/21 01:47:33;;;;;;;6.50;4.50;;;;;;;;;;5005401;28;20069;-75
2021/05/21 01:49:58;;;;;;;6.13;4.60;;;;;;;;;;5005502;28;20065;-77
2021/05/21 01:52:24;;;;;;;7.73;4.83;;;;;;;;;;4989825;28;20031;-77
2021/05/21 01:54:49;;;;;;;7.27;4.67;;;;;;;;;;5006082;28;20069;-76
2021/05/21 01:57:15;;;;;;;6.47;4.33;;;;;;;;;;4990213;28;20038;-74
2021/05/21 01:59:41;;;;;;;9.07;4.77;;;;;;;;;;5005822;28;20449;-76
2021/05/21 02:02:08;;;;;;;7.47;4.87;;;;;;;;;;4991654;28;20109;-77
2021/05/21 02:04:36;;;;;;;5.73;4.03;;;;;;;;;;4990636;28;20064;-78
2021/05/21 02:07:03;;;;;;;6.43;4.63;;;;;;;;;;4989830;28;20064;-77
2021/05/21 02:09:32;;;;;;;5.60;4.80;;;;;;;;;;4990355;28;20031;-77
2021/05/21 02:12:04;;;;;;;6.03;4.87;;;;;;;;;;4989918;28;20034;-77
2021/05/21 02:14:30;;;;;;;6.27;4.10;;;;;;;;;;5005719;28;20034;-75
2021/05/21 02:16:55;;;;;;;7.10;5.07;;;;;;;;;;5005438;28;20450;-76
2021/05/21 02:19:21;;;;;;;5.90;4.53;;;;;;;;;;5006170;28;20474;-78
2021/05/21 02:21:46;;;;;;;8.10;5.40;;;;;;;;;;5007915;28;20053;-77
2021/05/21 02:24:12;;;;;;;8.33;4.33;;;;;;;;;;4989684;28;20080;-77
2021/05/21 02:26:38;;;;;;;7.73;4.40;;;;;;;;;;4990209;28;20069;-77
2021/05/21 02:29:04;;;;;;;4.93;4.43;;;;;;;;;;5005143;28;20113;-78
2021/05/21 02:31:29;;;;;;;5.43;4.10;;;;;;;;;;4990346;28;20498;-77
2021/05/21 02:33:55;;;;;;;6.37;4.87;;;;;;;;;;5005234;28;20038;-76
2021/05/21 02:36:20;;;;;;;6.60;4.47;;;;;;;;;;4989742;28;20030;-77
2021/05/21 02:38:46;;;;;;;7.10;4.43;;;;;;;;;;4991708;28;20054;-77
2021/05/21 02:41:11;;;;;;;7.60;4.33;;;;;;;;;;4992312;28;20034;-77
2021/05/21 02:43:37;;;;;;;7.50;5.03;;;;;;;;;;5008294;28;20053;-77
2021/05/21 02:46:03;;;;;;;7.03;4.67;;;;;;;;;;5009267;28;20034;-76
2021/05/21 02:48:28;;;;;;;8.03;3.93;;;;;;;;;;5008098;28;20022;-78
2021/05/21 02:50:54;;;;;;;7.93;4.50;;;;;;;;;;4993517;28;20033;-77
2021/05/21 02:53:20;;;;;;;8.13;4.90;;;;;;;;;;4993395;28;20446;-76
2021/05/21 02:55:45;;;;;;;6.90;4.30;;;;;;;;;;4993338;28;20022;-78
2021/05/21 02:58:11;;;;;;;7.13;3.93;;;;;;;;;;5009192;28;20026;-75
2021/05/21 03:00:36;;;;;;;7.47;4.30;;;;;;;;;;5008001;28;20471;-77
2021/05/21 03:03:02;;;;;;;9.20;4.47;;;;;;;;;;5008849;28;20123;-78
2021/05/21 03:05:27;;;;;;;12.80;4.13;;;;;;;;;;4991418;28;20049;-78
2021/05/21 03:07:56;;;;;;;7.00;3.70;;;;;;;;;;5007904;28;20030;-76
2021/05/21 03:10:23;;;;;;;7.60;4.50;;;;;;;;;;5008740;28;20030;-77
2021/05/21 03:12:49;;;;;;;4.73;4.07;;;;;;;;;;4993122;28;20113;-77
2021/05/21 03:15:15;;;;;;;6.83;4.13;;;;;;;;;;5008508;28;20137;-76
2021/05/21 03:17:41;;;;;;;9.97;4.10;;;;;;;;;;4993674;28;20076;-77
2021/05/21 03:20:08;;;;;;;5.53;3.77;;;;;;;;;;4994017;28;20386;-79
2021/05/21 03:22:33;;;;;;;5.60;3.73;;;;;;;;;;4960144;28;20034;-77
2021/05/21 03:25:03;;;;;;;6.43;3.77;;;;;;;;;;5007857;28;20037;-77
2021/05/21 03:27:32;;;;;;;7.00;4.17;;;;;;;;;;5008060;28;20026;-76
2021/05/21 03:29:59;;;;;;;5.07;3.70;;;;;;;;;;5010937;28;20138;-77
2021/05/21 03:32:26;;;;;;;5.27;3.67;;;;;;;;;;5021713;28;20038;-76
2021/05/21 03:34:51;;;;;;;6.10;3.73;;;;;;;;;;4988846;28;20033;-77
2021/05/21 03:37:17;;;;;;;4.97;3.73;;;;;;;;;;5008668;28;20026;-78
2021/05/21 03:39:43;;;;;;;6.77;3.80;;;;;;;;;;5008508;28;20038;-78
2021/05/21 03:42:09;;;;;;;6.03;3.70;;;;;;;;;;4992762;28;20030;-78
2021/05/21 03:44:34;;;;;;;3.53;3.13;;;;;;;;;;5007879;28;20084;-78
2021/05/21 03:47:02;;;;;;;3.23;2.93;;;;;;;;;;4992709;28;20030;-76
2021/05/21 03:49:29;;;;;;;9.93;3.97;;;;;;;;;;4991925;28;20077;-77
2021/05/21 03:51:55;;;;;;;6.37;3.70;;;;;;;;;;4991985;28;20033;-76
2021/05/21 03:54:21;;;;;;;6.20;3.40;;;;;;;;;;5007412;28;20026;-76
2021/05/21 03:56:46;;;;;;;5.10;3.30;;;;;;;;;;4992534;28;20065;-77
2021/05/21 03:59:13;;;;;;;5.87;3.63;;;;;;;;;;5007873;28;20045;-76
2021/05/21 04:01:38;;;;;;;6.20;3.67;;;;;;;;;;4992653;28;20031;-77
2021/05/21 04:04:05;;;;;;;6.63;3.30;;;;;;;;;;4992293;28;20030;-77
2021/05/21 04:06:31;;;;;;;10.67;3.30;;;;;;;;;;5006781;28;20416;-77
2021/05/21 04:08:56;;;;;;;6.07;3.10;;;;;;;;;;5007022;28;20034;-78
2021/05/21 04:11:22;;;;;;;5.20;4.07;;;;;;;;;;5007375;28;20467;-74
2021/05/21 04:13:47;;;;;;;4.90;3.10;;;;;;;;;;5007140;28;20026;-78
2021/05/21 04:16:13;;;;;;;6.33;3.13;;;;;;;;;;5007198;28;20038;-77
2021/05/21 04:18:40;;;;;;;4.10;2.70;;;;;;;;;;5006871;28;20053;-77
2021/05/21 04:21:06;;;;;;;5.00;3.33;;;;;;;;;;5007677;28;20026;-79
2021/05/21 04:23:31;;;;;;;5.80;3.37;;;;;;;;;;5007272;28;20026;-77
2021/05/21 04:25:57;;;;;;;4.90;3.10;;;;;;;;;;5006423;28;20389;-76
2021/05/21 04:28:23;;;;;;;10.53;3.30;;;;;;;;;;5007333;28;20023;-75
2021/05/21 04:30:49;;;;;;;5.67;2.93;;;;;;;;;;4989671;28;20398;-78
2021/05/21 04:33:14;;;;;;;5.80;3.20;;;;;;;;;;5007796;28;20519;-77
2021/05/21 04:35:40;;;;;;;5.47;3.17;;;;;;;;;;4992712;28;20108;-76
2021/05/21 04:38:05;;;;;;;8.83;3.43;;;;;;;;;;5010346;28;20050;-77
2021/05/21 04:40:32;;;;;;;5.97;2.67;;;;;;;;;;5007928;28;20042;-76
2021/05/21 04:42:58;;;;;;;4.60;2.97;;;;;;;;;;4991829;28;20451;-78
2021/05/21 04:45:23;;;;;;;3.37;2.30;;;;;;;;;;4992203;28;20521;-75
2021/05/21 04:47:50;;;;;;;5.20;2.30;;;;;;;;;;4991604;28;20129;-75
2021/05/21 04:50:16;;;;;;;5.73;2.77;;;;;;;;;;5006629;28;20030;-75
2021/05/21 04:52:42;;;;;;;4.63;3.13;;;;;;;;;;4990057;28;20096;-79
2021/05/21 04:55:08;;;;;;;5.97;2.83;;;;;;;;;;4992270;28;20117;-77
2021/05/21 04:57:33;;;;;;;4.80;2.40;;;;;;;;;;5006053;28;20038;-78
2021/05/21 04:59:59;;;;;;;3.93;2.80;;;;;;;;;;5006148;28;20054;-77
2021/05/21 05:02:27;;;;;;;4.10;2.10;;;;;;;;;;5003943;28;20122;-76
2021/05/21 05:04:53;;;;;;;4.80;2.67;;;;;;;;;;5007068;28;20504;-77
2021/05/21 05:07:19;;;;;;;7.83;2.90;;;;;;;;;;4992641;28;20034;-79
2021/05/21 05:09:44;;;;;;;4.33;2.10;;;;;;;;;;5007880;28;20025;-78
2021/05/21 05:12:10;;;;;;;5.77;2.57;;;;;;;;;;5008429;28;20044;-77
2021/05/21 05:14:36;;;;;;;5.20;1.77;;;;;;;;;;5009917;28;20022;-77
2021/05/21 05:17:02;;;;;;;2.03;1.80;;;;;;;;;;5009075;28;20410;-76
2021/05/21 05:19:27;;;;;;;2.30;2.10;;;;;;;;;;5009895;28;20056;-77
2021/05/21 05:21:53;;;;;;;4.80;2.40;;;;;;;;;;5005709;28;20121;-80
2021/05/21 05:24:20;;;;;;;3.73;2.73;;;;;;;;;;4991243;28;20038;-77
2021/05/21 05:26:47;;;;;;;4.70;2.10;;;;;;;;;;4989013;28;20037;-75
2021/05/21 05:29:13;;;;;;;5.47;2.70;;;;;;;;;;5005243;28;20037;-75
2021/05/21 05:31:40;;;;;;;3.80;2.17;;;;;;;;;;4990021;28;20035;-76
2021/05/21 05:34:06;;;;;;;4.93;2.30;;;;;;;;;;4988342;28;20386;-76
2021/05/21 05:36:32;;;;;;;3.73;2.70;;;;;;;;;;5006753;28;20205;-76
2021/05/21 05:38:58;;;;;;;2.57;2.37;;;;;;;;;;5007320;28;20156;-77
2021/05/21 05:41:26;;;;;;;2.80;2.13;;;;;;;;;;5008295;28;20184;-76
2021/05/21 05:43:51;;;;;;;3.17;2.07;;;;;;;;;;5010434;28;20058;-77
2021/05/21 05:46:17;;;;;;;3.30;1.70;;;;;;;;;;5007703;28;20058;-76
2021/05/21 05:48:43;;;;;;;3.30;2.50;;;;;;;;;;5008043;28;20458;-78
2021/05/21 05:51:09;;;;;;;3.70;2.67;;;;;;;;;;5009527;28;20129;-77
2021/05/21 05:53:37;;;;;;;3.23;1.70;;;;;;;;;;5008694;28;20108;-75
2021/05/21 05:56:06;;;;;;;3.80;2.20;;;;;;;;;;5007482;28;20033;-75
2021/05/21 05:58:32;;;;;;;4.40;2.40;;;;;;;;;;5004002;28;20026;-76
2021/05/21 06:00:58;;;;;;;4.43;1.80;;;;;;;;;;5005442;28;20371;-76
2021/05/21 06:03:29;;;;;;;2.90;1.57;;;;;;;;;;4993547;28;20041;-77
2021/05/21 06:05:56;;;;;;;1.90;1.70;;;;;;;;;;5000551;28;20034;-75
2021/05/21 06:08:22;;;;;;;2.67;1.90;;;;;;;;;;5029670;28;20025;-76
2021/05/21 06:10:51;;;;;;;3.00;1.80;;;;;;;;;;4998295;28;20391;-74
2021/05/21 06:13:16;;;;;;;2.03;1.83;;;;;;;;;;5007209;28;20029;-76
2021/05/21 06:15:42;;;;;;;13.03;2.27;;;;;;;;;;5021822;28;20040;-75
2021/05/21 06:18:09;;;;;;;2.20;1.67;;;;;;;;;;5013309;28;20033;-77
2021/05/21 06:20:35;;;;;;;2.27;1.67;;;;;;;;;;5011090;28;20593;-76
2021/05/21 06:23:03;;;;;;;3.10;2.43;;;;;;;;;;5014453;28;20056;-76
2021/05/21 06:28:05;;;;;;;2.70;1.57;;;;;;;;;;5018620;28;20123;-75
2021/05/21 06:30:31;;;;;;;3.93;1.80;;;;;;;;;;5019189;28;20026;-78
2021/05/21 06:32:57;;;;;;;2.37;1.43;;;;;;;;;;5011561;28;20494;-76
2021/05/21 06:35:23;;;;;;;2.00;1.80;;;;;;;;;;5011961;28;20116;-76
2021/05/21 06:37:50;;;;;;;2.33;1.80;;;;;;;;;;5006903;28;20145;-77
2021/05/21 06:40:16;;;;;;;2.67;1.60;;;;;;;;;;5012141;28;20071;-76
2021/05/21 06:42:44;;;;;;;6.70;2.60;;;;;;;;;;4998872;28;20437;-76
2021/05/21 06:45:10;;;;;;;6.40;2.40;;;;;;;;;;5006412;28;20373;-75
2021/05/21 06:47:36;;;;;;;5.83;2.43;;;;;;;;;;5004773;28;20491;-76
2021/05/21 06:50:03;;;;;;;2.10;1.80;;;;;;;;;;5003700;28;20042;-75
2021/05/21 06:52:29;;;;;;;6.60;2.50;;;;;;;;;;4999594;28;20040;-75
2021/05/21 06:54:54;;;;;;;2.93;1.70;;;;;;;;;;5008250;28;20462;-76
2021/05/21 06:57:20;;;;;;;2.67;1.87;;;;;;;;;;5005635;28;20068;-77
2021/05/21 06:59:46;;;;;;;4.37;1.87;;;;;;;;;;5001610;28;20026;-74
2021/05/21 07:02:12;;;;;;;3.30;1.80;;;;;;;;;;4986572;28;20104;-74
2021/05/21 07:04:37;;;;;;;1.95;1.40;;;;;;;;;;4999999;28;20112;-75
2021/05/21 07:07:03;;;;;;;2.05;1.70;;;;;;;;;;5000381;28;20542;-74
2021/05/21 07:09:29;;;;;;;2.45;1.77;;;;;;;;;;5003482;28;20138;-76
2021/05/21 07:11:55;;;;;;;3.42;1.65;;;;;;;;;;4986233;28;20037;-76
2021/05/21 07:14:21;;;;;;;3.10;1.30;;;;;;;;;;4997241;28;20056;-75
2021/05/21 07:16:47;;;;;;;1.58;1.38;;;;;;;;;;5000982;28;20314;-75
2021/05/21 07:19:18;;;;;;;2.13;1.58;;;;;;;;;;5002633;28;21244;-76
2021/05/21 07:21:47;;;;;;;1.42;1.33;;;;;;;;;;5001348;28;20034;-75
2021/05/21 07:24:13;;;;;;;2.20;1.25;;;;;;;;;;5000565;28;20133;-76
2021/05/21 07:26:39;;;;;;;2.47;1.05;;;;;;;;;;5001239;28;20140;-76
2021/05/21 07:29:05;;;;;;;1.38;1.10;;;;;;;;;;5000016;28;20057;-74
2021/05/21 07:31:31;;;;;;;4.20;1.30;;;;;;;;;;4992534;28;20033;-76
2021/05/21 07:34:00;;;;;;;2.70;1.20;;;;;;;;;;4999929;28;20050;-76
2021/05/21 07:36:29;;;;;;;5.57;1.10;;;;;;;;;;5002643;28;20054;-76
2021/05/21 07:38:58;;;;;;;1.98;1.15;;;;;;;;;;5002362;28;20081;-76
2021/05/21 07:41:26;;;;;;;5.13;2.15;;;;;;;;;;5000147;28;20042;-74
2021/05/21 07:43:53;;;;;;;2.17;1.30;;;;;;;;;;5004065;28;20033;-75
2021/05/21 07:46:23;;;;;;;4.13;1.38;;;;;;;;;;4994348;28;20506;-76
2021/05/21 07:48:51;;;;;;;3.90;1.83;;;;;;;;;;5000212;28;20074;-75
2021/05/21 07:51:20;;;;;;;5.93;1.73;;;;;;;;;;4999990;28;20384;-73
2021/05/21 07:53:47;;;;;;;7.55;0.95;;;;;;;;;;4998741;28;20034;-76
2021/05/21 07:56:13;;;;;;;2.40;1.17;;;;;;;;;;5002740;28;20043;-76
2021/05/21 07:58:39;;;;;;;7.22;1.40;;;;;;;;;;4999332;28;20033;-75
2021/05/21 08:01:06;;;;;;;1.77;1.02;;;;;;;;;;4996156;28;20046;-74
2021/05/21 08:03:31;;;;;;;2.65;1.20;;;;;;;;;;5006325;28;20036;-75
2021/05/21 08:05:58;;;;;;;3.17;1.17;;;;;;;;;;5002318;28;20030;-75
2021/05/21 08:08:24;;;;;;;2.35;1.20;;;;;;;;;;5003370;28;20462;-75
2021/05/21 08:10:57;;;;;;;2.05;1.10;;;;;;;;;;5010688;28;20111;-75
2021/05/21 08:13:23;;;;;;;1.42;0.70;;;;;;;;;;5001379;28;20033;-76
2021/05/21 08:15:51;;;;;;;2.10;0.90;;;;;;;;;;5000297;28;20326;-76
2021/05/21 08:18:17;;;;;;;1.10;1.00;;;;;;;;;;5002673;28;20489;-76
2021/05/21 08:20:43;;;;;;;1.85;0.95;;;;;;;;;;4991004;28;20044;-76
2021/05/21 08:23:09;;;;;;;1.83;0.95;;;;;;;;;;4995013;28;20069;-76
2021/05/21 08:25:46;;;;;;;3.10;0.80;;;;;;;;;;4999180;28;20034;-75
2021/05/21 08:28:13;;;;;;;2.95;1.42;;;;;;;;;;4985619;28;20576;-76
2021/05/21 08:30:39;;;;;;;1.13;1.00;;;;;;;;;;4994903;28;20662;-75
2021/05/21 08:33:06;;;;;;;1.50;0.88;;;;;;;;;;4995900;28;20041;-76
2021/05/21 08:35:32;;;;;;;4.93;1.27;;;;;;;;;;4994816;28;20366;-76
2021/05/21 08:37:59;;;;;;;2.95;1.48;;;;;;;;;;5002178;28;20068;-75
2021/05/21 08:40:29;;;;;;;12.85;2.78;;;;;;;;;;4997028;28;20041;-75
2021/05/21 08:42:59;;;;;;;2.03;1.00;;;;;;;;;;4995748;28;20513;-76
2021/05/21 08:45:28;;;;;;;4.00;1.08;;;;;;;;;;4999930;28;20738;-74
2021/05/21 08:47:57;;;;;;;3.30;1.05;;;;;;;;;;4999055;28;20032;-75
2021/05/21 08:50:23;;;;;;;1.17;0.77;;;;;;;;;;4999463;28;20584;-75
2021/05/21 08:52:51;;;;;;;2.28;1.17;;;;;;;;;;4996749;28;20029;-76
2021/05/21 08:55:17;;;;;;;3.97;1.30;;;;;;;;;;4987204;28;20042;-76
2021/05/21 08:57:44;;;;;;;4.38;1.20;;;;;;;;;;5000589;28;20037;-75
2021/05/21 09:00:14;;;;;;;2.63;1.05;;;;;;;;;;4983159;28;20040;-78
2021/05/21 09:02:41;;;;;;;4.35;1.30;;;;;;;;;;4995935;28;20128;-76
2021/05/21 09:05:09;;;;;;;3.20;1.35;;;;;;;;;;4995708;28;20042;-77
2021/05/21 09:07:37;;;;;;;1.33;1.05;;;;;;;;;;4992938;28;20522;-77
2021/05/21 09:10:21;;;;;;;1.10;0.80;;;;;;;;;;5000591;28;20029;-75
2021/05/21 09:12:49;;;;;;;4.30;1.02;;;;;;;;;;4982495;28;20909;-75
2021/05/21 09:15:16;;;;;;;3.38;0.85;;;;;;;;;;4998539;28;20041;-76
2021/05/21 09:17:56;;;;;;;3.85;0.98;;;;;;;;;;5012045;28;20029;-76
2021/05/21 09:20:42;;;;;;;1.35;0.88;;;;;;;;;;4998527;28;20034;-74
2021/05/21 09:23:15;;;;;;;2.30;1.10;;;;;;;;;;4995917;28;20038;-77
2021/05/21 09:25:53;;;;;;;1.48;0.90;;;;;;;;;;4999001;28;20114;-75
2021/05/21 09:28:43;;;;;;;3.33;1.42;;;;;;;;;;4994432;28;20040;-76
2021/05/21 09:31:13;;;;;;;2.53;1.10;;;;;;;;;;5008960;28;20034;-75
2021/05/21 09:33:49;;;;;;;4.07;0.82;;;;;;;;;;4995493;28;20184;-77
2021/05/21 09:36:26;;;;;;;0.93;0.80;;;;;;;;;;4999861;28;20165;-75
2021/05/21 09:38:54;;;;;;;3.08;2.42;;;;;;;;;;4995303;28;20042;-75
2021/05/21 09:41:22;;;;;;;2.75;0.90;;;;;;;;;;5011221;28;20034;-74
2021/05/21 09:43:56;;;;;;;1.83;1.00;;;;;;;;;;4999084;28;20383;-77
2021/05/21 09:46:24;;;;;;;4.78;1.02;;;;;;;;;;5000774;28;20476;-75
2021/05/21 09:48:51;;;;;;;2.15;0.70;;;;;;;;;;4999663;28;20037;-78
2021/05/21 09:51:19;;;;;;;2.47;1.08;;;;;;;;;;4998392;28;20038;-76
2021/05/21 09:53:46;;;;;;;3.58;1.10;;;;;;;;;;5000604;28;20272;-74
2021/05/21 09:56:24;;;;;;;3.40;0.90;;;;;;;;;;4996272;28;20524;-76
2021/05/21 09:58:51;;;;;;;3.92;1.00;;;;;;;;;;5015723;28;20581;-76
2021/05/21 10:01:18;;;;;;;1.85;0.80;;;;;;;;;;5001006;28;20040;-74
2021/05/21 10:03:56;;;;;;;1.23;0.80;;;;;;;;;;5001573;28;20025;-75
2021/05/21 10:06:26;;;;;;;1.30;0.70;;;;;;;;;;4995746;28;20039;-76
2021/05/21 10:08:59;;;;;;;2.25;0.90;;;;;;;;;;5002322;28;20033;-78
2021/05/21 10:11:27;;;;;;;1.98;0.90;;;;;;;;;;5001342;28;20038;-74
2021/05/21 10:13:53;;;;;;;1.60;0.55;;;;;;;;;;4997042;28;20054;-75
2021/05/21 10:16:21;;;;;;;0.85;0.80;;;;;;;;;;4999678;28;20076;-74
2021/05/21 10:18:49;;;;;;;1.35;0.80;;;;;;;;;;4984085;28;20033;-75
2021/05/21 10:21:16;;;;;;;5.97;2.00;;;;;;;;;;4999667;28;20428;-76
2021/05/21 10:24:03;;;;;;;4.50;1.30;;;;;;;;;;4999088;28;20042;-77
2021/05/21 10:26:42;;;;;;;5.88;1.08;;;;;;;;;;4993027;28;20137;-77
2021/05/21 10:29:12;;;;;;;1.75;1.10;;;;;;;;;;4994630;28;20069;-76
2021/05/21 10:31:38;;;;;;;2.58;1.00;;;;;;;;;;4990789;28;20905;-76
2021/05/21 10:34:14;;;;;;;1.83;0.95;;;;;;;;;;4980650;28;20639;-77
2021/05/21 10:36:43;;;;;;;3.67;1.00;;;;;;;;;;4990873;28;20033;-76
2021/05/21 10:39:16;;;;;;;1.27;0.82;;;;;;;;;;5013689;28;20045;-74
2021/05/21 10:41:57;;;;;;;2.92;0.60;;;;;;;;;;4988877;28;20053;-78
2021/05/21 10:44:26;;;;;;;2.30;1.00;;;;;;;;;;5000687;28;20026;-77
2021/05/21 10:47:14;;;;;;;1.75;0.70;;;;;;;;;;4985748;28;20121;-76
2021/05/21 10:49:40;;;;;;;7.18;1.20;;;;;;;;;;4995931;28;20115;-75
2021/05/21 10:52:06;;;;;;;1.50;0.70;;;;;;;;;;4995307;28;20034;-78
2021/05/21 10:54:35;;;;;;;3.78;1.10;;;;;;;;;;4985811;28;20044;-77
2021/05/21 10:57:23;;;;;;;2.40;0.70;;;;;;;;;;5000462;28;20360;-76
2021/05/21 10:59:51;;;;;;;2.88;0.90;;;;;;;;;;5001584;28;20029;-77
2021/05/21 11:02:18;;;;;;;2.63;0.73;;;;;;;;;;5000228;28;20029;-77
2021/05/21 11:04:44;;;;;;;1.23;0.52;;;;;;;;;;5003001;28;20069;-77
2021/05/21 11:07:11;;;;;;;5.18;1.08;;;;;;;;;;5003495;28;20419;-77
2021/05/21 11:09:45;;;;;;;1.40;0.73;;;;;;;;;;5010454;28;21086;-77
2021/05/21 11:12:15;;;;;;;2.50;2.30;;;;;;;;;;5001217;28;20033;-77
2021/05/21 11:14:45;;;;;;;;;;;;;;;;;;5001990;28;20484;-77
2021/05/21 11:17:24;;;;;;;1.25;0.75;;;;;;;;;;4999852;28;19921;-77
2021/05/21 11:20:01;;;;;;;2.17;0.88;;;;;;;;;;5002330;28;20314;-75
2021/05/21 11:22:26;;;;;;;3.25;1.05;;;;;;;;;;4994524;28;20081;-77
2021/05/21 11:25:16;;;;;;;4.78;0.60;;;;;;;;;;5003327;28;20037;-78
2021/05/21 11:27:42;;;;;;;1.27;0.80;;;;;;;;;;5004703;28;20042;-75
2021/05/21 11:30:12;;;;;;;3.10;0.60;;;;;;;;;;4992060;28;20038;-77
2021/05/21 11:32:41;;;;;;;3.20;0.70;;;;;;;;;;4993290;28;20030;-77
2021/05/21 11:35:09;;;;;;;6.97;2.67;;;;;;;;;;5002842;28;20084;-79
2021/05/21 11:37:35;;;;;;;2.10;0.65;;;;;;;;;;4995963;28;20591;-80
2021/05/21 11:40:06;;;;;;;1.38;0.40;;;;;;;;;;5001985;28;20722;-78
2021/05/21 11:42:32;;;;;;;1.25;0.80;;;;;;;;;;5010922;28;20022;-78
2021/05/21 11:44:58;;;;;;;4.10;2.10;;;;;;;;;;4993431;28;20025;-75
2021/05/21 11:47:29;;;;;;;3.67;0.98;;;;;;;;;;5004133;28;20451;-77
2021/05/21 11:49:55;;;;;;;1.42;0.60;;;;;;;;;;4998918;28;20351;-76
2021/05/21 11:52:21;;;;;;;4.63;0.60;;;;;;;;;;5015912;28;20483;-75
2021/05/21 11:54:46;;;;;;;0.75;0.60;;;;;;;;;;5005868;28;20021;-76
2021/05/21 11:57:19;;;;;;;2.20;0.80;;;;;;;;;;5014286;28;20032;-79
2021/05/21 11:59:47;;;;;;;1.48;0.45;;;;;;;;;;5001874;28;20095;-77
2021/05/21 12:02:16;;;;;;;0.90;0.60;;;;;;;;;;5003375;28;20151;-76
2021/05/21 12:04:43;;;;;;;0.95;0.57;;;;;;;;;;5004554;28;20465;-76
2021/05/21 12:07:37;;;;;;;2.10;0.50;;;;;;;;;;4985247;28;20271;-76
2021/05/21 12:10:04;;;;;;;1.20;0.75;;;;;;;;;;4997578;28;20038;-77
2021/05/21 12:12:35;;;;;;;0.75;0.70;;;;;;;;;;5004826;28;20430;-76
2021/05/21 12:15:13;;;;;;;4.95;3.13;;;;;;;;;;5000991;28;20186;-77
2021/05/21 12:17:49;;;;;;;1.83;0.85;;;;;;;;;;5015380;28;20041;-77
2021/05/21 12:20:16;;;;;;;1.88;1.27;;;;;;;;;;4989104;28;20062;-76
2021/05/21 12:22:59;;;;;;;0.45;0.40;;;;;;;;;;5016363;28;20024;-76
2021/05/21 12:25:28;;;;;;;0.95;0.30;;;;;;;;;;4995707;28;20251;-77
2021/05/21 12:27:55;;;;;;;1.90;0.30;;;;;;;;;;4999648;28;20029;-77
2021/05/21 12:30:23;;;;;;;1.95;0.50;;;;;;;;;;4997420;28;20061;-78
2021/05/21 12:32:50;;;;;;;1.30;0.50;;;;;;;;;;4980109;28;20035;-76
2021/05/21 12:35:19;;;;;;;1.02;0.80;;;;;;;;;;5005547;28;20034;-76
2021/05/21 12:37:48;;;;;;;1.67;0.32;;;;;;;;;;4992799;28;20058;-77
2021/05/21 12:40:15;;;;;;;10.32;1.38;;;;;;;;;;5009292;28;20088;-76
2021/05/21 12:42:54;;;;;;;0.68;0.40;;;;;;;;;;5006982;28;20057;-75
2021/05/21 12:45:21;;;;;;;4.82;0.82;;;;;;;;;;5016106;28;20017;-77
2021/05/21 12:47:49;;;;;;;0.93;0.30;;;;;;;;;;5001564;28;20033;-77
2021/05/21 12:50:17;;;;;;;2.60;0.50;;;;;;;;;;5018461;28;20036;-76
2021/05/21 12:53:01;;;;;;;2.00;0.68;;;;;;;;;;5016926;28;20072;-75
2021/05/21 12:55:27;;;;;;;2.03;0.50;;;;;;;;;;5002776;28;20021;-75
2021/05/21 12:57:57;;;;;;;1.70;0.20;;;;;;;;;;5023826;28;20017;-76
2021/05/21 13:00:25;;;;;;;0.75;0.35;;;;;;;;;;5005309;28;20025;-76
2021/05/21 13:02:58;;;;;;;1.13;0.40;;;;;;;;;;4989827;28;20120;-76
2021/05/21 13:05:27;;;;;;;0.93;0.63;;;;;;;;;;5021687;28;20021;-76
2021/05/21 13:08:04;;;;;;;2.22;0.50;;;;;;;;;;5005720;28;20022;-77
2021/05/21 13:10:40;;;;;;;2.67;0.70;;;;;;;;;;5002340;28;20025;-77
2021/05/21 13:13:06;;;;;;;1.52;0.30;;;;;;;;;;5013743;28;20033;-77
2021/05/21 13:15:38;;;;;;;0.82;0.30;;;;;;;;;;4998359;28;20412;-78
2021/05/21 13:18:04;;;;;;;1.20;0.50;;;;;;;;;;5013501;28;20260;-76
2021/05/21 13:20:33;;;;;;;0.35;0.20;;;;;;;;;;4987611;28;20121;-76
2021/05/21 13:23:01;;;;;;;1.27;0.57;;;;;;;;;;4997242;28;20030;-78
2021/05/21 13:25:29;;;;;;;0.68;0.35;;;;;;;;;;4998403;28;20482;-77
2021/05/21 13:28:03;;;;;;;0.60;0.30;;;;;;;;;;5019909;28;20478;-77
2021/05/21 13:30:30;;;;;;;2.22;0.52;;;;;;;;;;4993653;28;20034;-74
2021/05/21 13:32:57;;;;;;;2.15;0.30;;;;;;;;;;5027710;28;20033;-76
2021/05/21 13:35:23;;;;;;;2.05;0.40;;;;;;;;;;5006673;28;20192;-76
2021/05/21 13:37:51;;;;;;;0.68;0.30;;;;;;;;;;5000785;28;20029;-77
2021/05/21 13:40:18;;;;;;;1.98;0.50;;;;;;;;;;4984994;28;20048;-77
2021/05/21 13:42:45;;;;;;;2.05;0.52;;;;;;;;;;5009139;28;20538;-75
2021/05/21 13:45:11;;;;;;;3.63;0.50;;;;;;;;;;5008966;28;20083;-76
2021/05/21 13:47:37;;;;;;;0.60;0.57;;;;;;;;;;5013231;28;20056;-78
2021/05/21 13:50:05;;;;;;;2.65;0.65;;;;;;;;;;5003151;28;20030;-74
2021/05/21 13:52:32;;;;;;;1.80;0.25;;;;;;;;;;5004462;28;20101;-76
2021/05/21 13:54:59;;;;;;;3.95;0.80;;;;;;;;;;5007819;28;20029;-77
2021/05/21 13:57:24;;;;;;;1.30;0.70;;;;;;;;;;4998981;28;20156;-76
2021/05/21 13:59:51;;;;;;;3.67;0.45;;;;;;;;;;5008855;28;20055;-76
2021/05/21 14:02:16;;;;;;;2.25;0.47;;;;;;;;;;5024771;28;20277;-77
2021/05/21 14:04:43;;;;;;;2.33;0.55;;;;;;;;;;5017763;28;20030;-75
2021/05/21 14:07:09;;;;;;;1.85;0.50;;;;;;;;;;5003725;28;20630;-78
2021/05/21 14:09:35;;;;;;;2.97;0.95;;;;;;;;;;5007629;28;20030;-77
2021/05/21 14:12:01;;;;;;;4.53;0.77;;;;;;;;;;5024585;28;20091;-77
2021/05/21 14:14:27;;;;;;;5.00;0.50;;;;;;;;;;5005981;28;20030;-75
2021/05/21 14:16:53;;;;;;;1.83;0.60;;;;;;;;;;4992405;28;20144;-76
2021/05/21 14:19:20;;;;;;;0.68;0.40;;;;;;;;;;5010201;28;20030;-76
2021/05/21 14:21:47;;;;;;;0.98;0.50;;;;;;;;;;5001771;28;20048;-76
2021/05/21 14:24:14;;;;;;;3.50;0.98;;;;;;;;;;5008413;28;20033;-76
2021/05/21 14:26:42;;;;;;;5.50;0.65;;;;;;;;;;5021291;28;20144;-76
2021/05/21 14:29:13;;;;;;;0.73;0.50;;;;;;;;;;4996935;28;20045;-75
2021/05/21 14:31:46;;;;;;;2.50;0.70;;;;;;;;;;4999929;28;20361;-77
2021/05/21 14:34:22;;;;;;;0.77;0.70;;;;;;;;;;5005186;28;20117;-76
2021/05/21 14:36:48;;;;;;;3.55;0.80;;;;;;;;;;5029793;28;20474;-76
2021/05/21 14:39:16;;;;;;;2.55;1.00;;;;;;;;;;5023233;28;20054;-75
2021/05/21 14:41:43;;;;;;;2.20;0.98;;;;;;;;;;5004475;28;20072;-76
2021/05/21 14:44:11;;;;;;;2.15;0.90;;;;;;;;;;5007761;28;20046;-76
2021/05/21 14:46:41;;;;;;;0.63;0.55;;;;;;;;;;5017369;28;20030;-75
2021/05/21 14:49:08;;;;;;;1.50;0.60;;;;;;;;;;5018338;28;20021;-75